sensor_id;sensor_type;location;lat;lon;timestamp;temperature;humidity
19152;DHT22;9708;53.114;9.388;2023-10-08T00:02:10;12.10;99.90
19152;DHT22;9708;53.114;9.388;2023-10-08T00:04:36;12.10;99.90
19152;DHT22;9708;53.114;9.388;2023-10-08T00:07:03;12.10;99.90
19152;DHT22;9708;53.114;9.388;2023-10-08T00:09:33;12.10;99.90
19152;DHT22;9708;53.114;9.388;2023-10-08T00:12:02;12.10;99.90
19152;DHT22;9708;53.114;9.388;2023-10-08T00:14:31;12.10;99.90
19152;DHT22;9708;53.114;9.388;2023-10-08T00:16:58;12.10;99.90
19152;DHT22;9708;53.114;9.388;2023-10-08T00:19:25;12.10;99.90
19152;DHT22;9708;53.114;9.388;2023-10-08T00:21:58;12.10;99.90
19152;DHT22;9708;53.114;9.388;2023-10-08T00:24:30;12.10;99.90
19152;DHT22;9708;53.114;9.388;2023-10-08T00:26:58;12.10;99.90
19152;DHT22;9708;53.114;9.388;2023-10-08T00:29:26;12.10;99.90
19152;DHT22;9708;53.114;9.388;2023-10-08T00:31:55;12.10;99.90
19152;DHT22;9708;53.114;9.388;2023-10-08T00:34:22;12.10;99.90
19152;DHT22;9708;53.114;9.388;2023-10-08T00:36:50;12.10;99.90
19152;DHT22;9708;53.114;9.388;2023-10-08T00:39:18;12.10;99.90
19152;DHT22;9708;53.114;9.388;2023-10-08T00:41:50;12.10;99.90
19152;DHT22;9708;53.114;9.388;2023-10-08T00:44:20;12.10;99.90
19152;DHT22;9708;53.114;9.388;2023-10-08T00:46:49;12.20;99.90
19152;DHT22;9708;53.114;9.388;2023-10-08T00:49:20;12.10;99.90
19152;DHT22;9708;53.114;9.388;2023-10-08T00:51:59;12.20;99.90
19152;DHT22;9708;53.114;9.388;2023-10-08T00:54:29;12.10;99.90
19152;DHT22;9708;53.114;9.388;2023-10-08T00:56:59;12.10;99.90
19152;DHT22;9708;53.114;9.388;2023-10-08T00:59:31;12.10;99.90
19152;DHT22;9708;53.114;9.388;2023-10-08T01:02:02;12.20;99.90
19152;DHT22;9708;53.114;9.388;2023-10-08T01:04:34;12.20;99.90
19152;DHT22;9708;53.114;9.388;2023-10-08T01:07:03;12.20;99.90
19152;DHT22;9708;53.114;9.388;2023-10-08T01:09:39;12.20;99.90
19152;DHT22;9708;53.114;9.388;2023-10-08T01:12:09;12.10;99.90
19152;DHT22;9708;53.114;9.388;2023-10-08T01:14:39;12.20;99.90
19152;DHT22;9708;53.114;9.388;2023-10-08T01:17:09;12.20;99.90
19152;DHT22;9708;53.114;9.388;2023-10-08T01:19:39;12.10;99.90
19152;DHT22;9708;53.114;9.388;2023-10-08T01:22:09;12.20;99.90
19152;DHT22;9708;53.114;9.388;2023-10-08T01:24:42;12.20;99.90
19152;DHT22;9708;53.114;9.388;2023-10-08T01:27:09;12.20;99.90
19152;DHT22;9708;53.114;9.388;2023-10-08T01:29:37;12.20;99.90
19152;DHT22;9708;53.114;9.388;2023-10-08T01:32:04;12.10;99.90
19152;DHT22;9708;53.114;9.388;2023-10-08T01:34:36;12.20;99.90
19152;DHT22;9708;53.114;9.388;2023-10-08T01:37:04;12.20;99.90
19152;DHT22;9708;53.114;9.388;2023-10-08T01:39:36;12.20;99.90
19152;DHT22;9708;53.114;9.388;2023-10-08T01:42:03;12.10;99.90
19152;DHT22;9708;53.114;9.388;2023-10-08T01:44:32;12.10;99.90
19152;DHT22;9708;53.114;9.388;2023-10-08T01:47:00;12.00;99.90
19152;DHT22;9708;53.114;9.388;2023-10-08T01:49:30;12.10;99.90
19152;DHT22;9708;53.114;9.388;2023-10-08T01:51:59;12.10;99.90
19152;DHT22;9708;53.114;9.388;2023-10-08T01:54:31;12.10;99.90
19152;DHT22;9708;53.114;9.388;2023-10-08T01:57:02;12.10;99.90
19152;DHT22;9708;53.114;9.388;2023-10-08T01:59:31;12.10;99.90
19152;DHT22;9708;53.114;9.388;2023-10-08T02:01:59;12.10;99.90
19152;DHT22;9708;53.114;9.388;2023-10-08T02:04:25;12.00;99.90
19152;DHT22;9708;53.114;9.388;2023-10-08T02:06:53;12.00;99.90
19152;DHT22;9708;53.114;9.388;2023-10-08T02:09:20;12.00;99.90
19152;DHT22;9708;53.114;9.388;2023-10-08T02:11:52;12.00;99.90
19152;DHT22;9708;53.114;9.388;2023-10-08T02:14:21;12.10;99.90
19152;DHT22;9708;53.114;9.388;2023-10-08T02:16:48;12.00;99.90
19152;DHT22;9708;53.114;9.388;2023-10-08T02:19:18;12.00;99.90
19152;DHT22;9708;53.114;9.388;2023-10-08T02:21:52;12.00;99.90
19152;DHT22;9708;53.114;9.388;2023-10-08T02:24:19;12.00;99.90
19152;DHT22;9708;53.114;9.388;2023-10-08T02:26:47;12.00;99.90
19152;DHT22;9708;53.114;9.388;2023-10-08T02:29:14;12.00;99.90
19152;DHT22;9708;53.114;9.388;2023-10-08T02:31:42;12.00;99.90
19152;DHT22;9708;53.114;9.388;2023-10-08T02:34:10;12.00;99.90
19152;DHT22;9708;53.114;9.388;2023-10-08T02:36:38;12.10;99.90
19152;DHT22;9708;53.114;9.388;2023-10-08T02:39:06;12.10;99.90
19152;DHT22;9708;53.114;9.388;2023-10-08T02:41:39;12.10;99.90
19152;DHT22;9708;53.114;9.388;2023-10-08T02:44:08;12.10;99.90
19152;DHT22;9708;53.114;9.388;2023-10-08T02:46:38;12.10;99.90
19152;DHT22;9708;53.114;9.388;2023-10-08T02:49:08;12.10;99.90
19152;DHT22;9708;53.114;9.388;2023-10-08T02:51:37;12.00;99.90
19152;DHT22;9708;53.114;9.388;2023-10-08T02:54:05;12.10;99.90
19152;DHT22;9708;53.114;9.388;2023-10-08T02:56:32;12.10;99.90
19152;DHT22;9708;53.114;9.388;2023-10-08T02:58:59;12.00;99.90
19152;DHT22;9708;53.114;9.388;2023-10-08T03:01:28;12.10;99.90
19152;DHT22;9708;53.114;9.388;2023-10-08T03:03:59;12.10;99.90
19152;DHT22;9708;53.114;9.388;2023-10-08T03:06:42;12.00;99.90
19152;DHT22;9708;53.114;9.388;2023-10-08T03:09:08;12.00;99.90
19152;DHT22;9708;53.114;9.388;2023-10-08T03:11:39;12.00;99.90
19152;DHT22;9708;53.114;9.388;2023-10-08T03:14:12;12.00;99.90
19152;DHT22;9708;53.114;9.388;2023-10-08T03:16:48;12.00;99.90
19152;DHT22;9708;53.114;9.388;2023-10-08T03:19:16;12.10;99.90
19152;DHT22;9708;53.114;9.388;2023-10-08T03:21:46;12.10;99.90
19152;DHT22;9708;53.114;9.388;2023-10-08T03:24:17;12.00;99.90
19152;DHT22;9708;53.114;9.388;2023-10-08T03:26:56;12.10;99.90
19152;DHT22;9708;53.114;9.388;2023-10-08T03:29:33;12.00;99.90
19152;DHT22;9708;53.114;9.388;2023-10-08T03:32:06;12.00;99.90
19152;DHT22;9708;53.114;9.388;2023-10-08T03:34:38;12.00;99.90
19152;DHT22;9708;53.114;9.388;2023-10-08T03:37:10;12.00;99.90
19152;DHT22;9708;53.114;9.388;2023-10-08T03:39:41;11.90;99.90
19152;DHT22;9708;53.114;9.388;2023-10-08T03:42:26;11.90;99.90
19152;DHT22;9708;53.114;9.388;2023-10-08T03:45:00;11.90;99.90
19152;DHT22;9708;53.114;9.388;2023-10-08T03:47:36;11.90;99.90
19152;DHT22;9708;53.114;9.388;2023-10-08T03:50:05;11.90;99.90
19152;DHT22;9708;53.114;9.388;2023-10-08T03:52:33;11.80;99.90
19152;DHT22;9708;53.114;9.388;2023-10-08T03:55:03;11.80;99.90
19152;DHT22;9708;53.114;9.388;2023-10-08T03:57:45;11.80;99.90
19152;DHT22;9708;53.114;9.388;2023-10-08T04:00:22;11.80;99.90
19152;DHT22;9708;53.114;9.388;2023-10-08T04:02:54;11.90;99.90
19152;DHT22;9708;53.114;9.388;2023-10-08T04:05:26;11.90;99.90
19152;DHT22;9708;53.114;9.388;2023-10-08T04:08:07;11.90;99.90
19152;DHT22;9708;53.114;9.388;2023-10-08T04:10:47;11.90;99.90
19152;DHT22;9708;53.114;9.388;2023-10-08T04:13:30;11.90;99.90
19152;DHT22;9708;53.114;9.388;2023-10-08T04:15:57;11.90;99.90
19152;DHT22;9708;53.114;9.388;2023-10-08T04:18:24;11.80;99.90
19152;DHT22;9708;53.114;9.388;2023-10-08T04:20:53;11.80;99.90
19152;DHT22;9708;53.114;9.388;2023-10-08T04:23:32;11.80;99.90
19152;DHT22;9708;53.114;9.388;2023-10-08T04:25:59;11.80;99.90
19152;DHT22;9708;53.114;9.388;2023-10-08T04:28:25;11.90;99.90
19152;DHT22;9708;53.114;9.388;2023-10-08T04:30:56;11.90;99.90
19152;DHT22;9708;53.114;9.388;2023-10-08T04:33:29;11.90;99.90
19152;DHT22;9708;53.114;9.388;2023-10-08T04:35:59;11.90;99.90
19152;DHT22;9708;53.114;9.388;2023-10-08T04:38:30;11.90;99.90
19152;DHT22;9708;53.114;9.388;2023-10-08T04:41:05;11.90;99.90
19152;DHT22;9708;53.114;9.388;2023-10-08T04:43:34;11.90;99.90
19152;DHT22;9708;53.114;9.388;2023-10-08T04:46:03;12.00;99.90
19152;DHT22;9708;53.114;9.388;2023-10-08T04:48:45;12.00;99.90
19152;DHT22;9708;53.114;9.388;2023-10-08T04:51:11;11.90;99.90
19152;DHT22;9708;53.114;9.388;2023-10-08T04:53:40;11.90;99.90
19152;DHT22;9708;53.114;9.388;2023-10-08T04:56:10;11.90;99.90
19152;DHT22;9708;53.114;9.388;2023-10-08T04:58:42;11.90;99.90
19152;DHT22;9708;53.114;9.388;2023-10-08T05:01:12;11.90;99.90
19152;DHT22;9708;53.114;9.388;2023-10-08T05:03:53;11.90;99.90
19152;DHT22;9708;53.114;9.388;2023-10-08T05:06:34;11.90;99.90
19152;DHT22;9708;53.114;9.388;2023-10-08T05:09:28;11.80;99.90
19152;DHT22;9708;53.114;9.388;2023-10-08T05:12:08;11.90;99.90
19152;DHT22;9708;53.114;9.388;2023-10-08T05:14:54;11.80;99.90
19152;DHT22;9708;53.114;9.388;2023-10-08T05:17:35;11.90;99.90
19152;DHT22;9708;53.114;9.388;2023-10-08T05:20:11;11.80;99.90
19152;DHT22;9708;53.114;9.388;2023-10-08T05:22:55;11.80;99.90
19152;DHT22;9708;53.114;9.388;2023-10-08T05:25:22;11.80;99.90
19152;DHT22;9708;53.114;9.388;2023-10-08T05:28:00;11.80;99.90
19152;DHT22;9708;53.114;9.388;2023-10-08T05:30:35;11.80;99.90
19152;DHT22;9708;53.114;9.388;2023-10-08T05:33:19;11.80;99.90
19152;DHT22;9708;53.114;9.388;2023-10-08T05:35:52;11.80;99.90
19152;DHT22;9708;53.114;9.388;2023-10-08T05:38:28;11.80;99.90
19152;DHT22;9708;53.114;9.388;2023-10-08T05:41:15;11.80;99.90
19152;DHT22;9708;53.114;9.388;2023-10-08T05:44:16;11.80;99.90
19152;DHT22;9708;53.114;9.388;2023-10-08T05:47:04;11.80;99.90
19152;DHT22;9708;53.114;9.388;2023-10-08T05:49:49;11.70;99.90
19152;DHT22;9708;53.114;9.388;2023-10-08T05:52:33;11.70;99.90
19152;DHT22;9708;53.114;9.388;2023-10-08T05:55:16;11.70;99.90
19152;DHT22;9708;53.114;9.388;2023-10-08T05:57:52;11.70;99.90
19152;DHT22;9708;53.114;9.388;2023-10-08T06:00:30;11.80;99.90
19152;DHT22;9708;53.114;9.388;2023-10-08T06:03:10;11.80;99.90
19152;DHT22;9708;53.114;9.388;2023-10-08T06:05:57;11.90;99.90
19152;DHT22;9708;53.114;9.388;2023-10-08T06:08:48;11.90;99.90
19152;DHT22;9708;53.114;9.388;2023-10-08T06:11:48;12.00;99.90
19152;DHT22;9708;53.114;9.388;2023-10-08T06:14:37;12.00;99.90
19152;DHT22;9708;53.114;9.388;2023-10-08T06:17:33;12.10;99.90
19152;DHT22;9708;53.114;9.388;2023-10-08T06:20:17;12.20;99.90
19152;DHT22;9708;53.114;9.388;2023-10-08T06:22:51;12.20;99.90
19152;DHT22;9708;53.114;9.388;2023-10-08T06:25:19;12.20;99.90
19152;DHT22;9708;53.114;9.388;2023-10-08T06:27:49;12.30;99.90
19152;DHT22;9708;53.114;9.388;2023-10-08T06:30:21;12.40;99.90
19152;DHT22;9708;53.114;9.388;2023-10-08T06:32:49;12.50;99.90
19152;DHT22;9708;53.114;9.388;2023-10-08T06:35:19;12.50;99.90
19152;DHT22;9708;53.114;9.388;2023-10-08T06:37:51;12.60;99.90
19152;DHT22;9708;53.114;9.388;2023-10-08T06:40:20;12.60;99.90
19152;DHT22;9708;53.114;9.388;2023-10-08T06:43:05;12.70;99.90
19152;DHT22;9708;53.114;9.388;2023-10-08T06:45:42;12.80;99.90
19152;DHT22;9708;53.114;9.388;2023-10-08T06:48:09;12.90;99.90
19152;DHT22;9708;53.114;9.388;2023-10-08T06:50:43;13.00;99.90
19152;DHT22;9708;53.114;9.388;2023-10-08T06:53:10;13.10;99.90
19152;DHT22;9708;53.114;9.388;2023-10-08T06:55:39;13.10;99.90
19152;DHT22;9708;53.114;9.388;2023-10-08T06:58:07;13.30;99.90
19152;DHT22;9708;53.114;9.388;2023-10-08T07:00:34;13.40;99.90
19152;DHT22;9708;53.114;9.388;2023-10-08T07:03:07;13.50;99.90
19152;DHT22;9708;53.114;9.388;2023-10-08T07:05:36;13.70;99.90
19152;DHT22;9708;53.114;9.388;2023-10-08T07:08:07;14.30;99.90
19152;DHT22;9708;53.114;9.388;2023-10-08T07:10:34;14.90;99.90
19152;DHT22;9708;53.114;9.388;2023-10-08T07:13:01;15.90;99.90
19152;DHT22;9708;53.114;9.388;2023-10-08T07:15:30;16.80;99.90
19152;DHT22;9708;53.114;9.388;2023-10-08T07:17:57;17.10;99.90
19152;DHT22;9708;53.114;9.388;2023-10-08T07:20:37;17.90;99.90
19152;DHT22;9708;53.114;9.388;2023-10-08T07:23:06;18.20;99.90
19152;DHT22;9708;53.114;9.388;2023-10-08T07:25:51;19.20;99.90
19152;DHT22;9708;53.114;9.388;2023-10-08T07:28:19;19.70;99.90
19152;DHT22;9708;53.114;9.388;2023-10-08T07:30:46;19.50;99.90
19152;DHT22;9708;53.114;9.388;2023-10-08T07:33:15;19.80;99.90
19152;DHT22;9708;53.114;9.388;2023-10-08T07:35:46;20.10;99.90
19152;DHT22;9708;53.114;9.388;2023-10-08T07:38:20;19.70;99.90
19152;DHT22;9708;53.114;9.388;2023-10-08T07:40:48;20.00;99.90
19152;DHT22;9708;53.114;9.388;2023-10-08T07:43:15;20.10;99.90
19152;DHT22;9708;53.114;9.388;2023-10-08T07:45:46;20.10;99.90
19152;DHT22;9708;53.114;9.388;2023-10-08T07:48:13;20.10;99.90
19152;DHT22;9708;53.114;9.388;2023-10-08T07:50:42;19.50;99.90
19152;DHT22;9708;53.114;9.388;2023-10-08T07:53:12;19.50;99.90
19152;DHT22;9708;53.114;9.388;2023-10-08T07:55:47;19.70;99.90
19152;DHT22;9708;53.114;9.388;2023-10-08T07:58:15;19.40;99.90
19152;DHT22;9708;53.114;9.388;2023-10-08T08:00:43;19.30;99.90
19152;DHT22;9708;53.114;9.388;2023-10-08T08:03:20;18.70;99.90
19152;DHT22;9708;53.114;9.388;2023-10-08T08:05:48;18.80;99.90
19152;DHT22;9708;53.114;9.388;2023-10-08T08:08:20;18.80;99.90
19152;DHT22;9708;53.114;9.388;2023-10-08T08:10:49;18.90;99.90
19152;DHT22;9708;53.114;9.388;2023-10-08T08:13:24;19.50;99.90
19152;DHT22;9708;53.114;9.388;2023-10-08T08:15:54;20.20;99.90
19152;DHT22;9708;53.114;9.388;2023-10-08T08:18:24;20.30;99.90
19152;DHT22;9708;53.114;9.388;2023-10-08T08:20:59;20.70;99.90
19152;DHT22;9708;53.114;9.388;2023-10-08T08:23:29;20.00;99.90
19152;DHT22;9708;53.114;9.388;2023-10-08T08:25:57;19.40;99.90
19152;DHT22;9708;53.114;9.388;2023-10-08T08:28:37;19.20;99.90
19152;DHT22;9708;53.114;9.388;2023-10-08T08:31:05;18.80;99.90
19152;DHT22;9708;53.114;9.388;2023-10-08T08:33:39;18.40;99.90
19152;DHT22;9708;53.114;9.388;2023-10-08T08:36:18;18.10;99.90
19152;DHT22;9708;53.114;9.388;2023-10-08T08:38:48;17.80;99.90
19152;DHT22;9708;53.114;9.388;2023-10-08T08:41:15;18.00;99.90
19152;DHT22;9708;53.114;9.388;2023-10-08T08:43:47;18.50;99.90
19152;DHT22;9708;53.114;9.388;2023-10-08T08:46:14;18.60;99.90
19152;DHT22;9708;53.114;9.388;2023-10-08T08:48:42;19.00;99.90
19152;DHT22;9708;53.114;9.388;2023-10-08T08:51:10;20.20;99.90
19152;DHT22;9708;53.114;9.388;2023-10-08T08:53:37;21.00;99.90
19152;DHT22;9708;53.114;9.388;2023-10-08T08:56:08;21.30;99.90
19152;DHT22;9708;53.114;9.388;2023-10-08T08:58:36;21.60;99.90
19152;DHT22;9708;53.114;9.388;2023-10-08T09:01:06;21.70;99.90
19152;DHT22;9708;53.114;9.388;2023-10-08T09:03:35;21.30;99.90
19152;DHT22;9708;53.114;9.388;2023-10-08T09:06:03;21.50;99.90
19152;DHT22;9708;53.114;9.388;2023-10-08T09:08:34;22.10;99.90
19152;DHT22;9708;53.114;9.388;2023-10-08T09:11:01;22.90;99.90
19152;DHT22;9708;53.114;9.388;2023-10-08T09:13:31;23.20;99.90
19152;DHT22;9708;53.114;9.388;2023-10-08T09:16:07;22.50;99.90
19152;DHT22;9708;53.114;9.388;2023-10-08T09:18:34;22.10;99.90
19152;DHT22;9708;53.114;9.388;2023-10-08T09:21:08;21.70;99.90
19152;DHT22;9708;53.114;9.388;2023-10-08T09:23:39;21.90;99.90
19152;DHT22;9708;53.114;9.388;2023-10-08T09:26:10;22.30;99.90
19152;DHT22;9708;53.114;9.388;2023-10-08T09:28:44;22.10;99.90
19152;DHT22;9708;53.114;9.388;2023-10-08T09:31:12;22.70;99.90
19152;DHT22;9708;53.114;9.388;2023-10-08T09:33:39;22.30;99.90
19152;DHT22;9708;53.114;9.388;2023-10-08T09:36:09;22.50;99.90
19152;DHT22;9708;53.114;9.388;2023-10-08T09:38:36;22.30;99.90
19152;DHT22;9708;53.114;9.388;2023-10-08T09:41:03;22.10;99.90
19152;DHT22;9708;53.114;9.388;2023-10-08T09:43:32;22.50;99.90
19152;DHT22;9708;53.114;9.388;2023-10-08T09:46:08;22.30;99.90
19152;DHT22;9708;53.114;9.388;2023-10-08T09:48:37;22.20;99.90
19152;DHT22;9708;53.114;9.388;2023-10-08T09:51:05;22.60;99.90
19152;DHT22;9708;53.114;9.388;2023-10-08T09:53:41;22.30;99.90
19152;DHT22;9708;53.114;9.388;2023-10-08T09:56:13;22.40;99.90
19152;DHT22;9708;53.114;9.388;2023-10-08T09:58:41;22.70;99.90
19152;DHT22;9708;53.114;9.388;2023-10-08T10:01:10;22.30;99.90
19152;DHT22;9708;53.114;9.388;2023-10-08T10:03:37;21.90;99.90
19152;DHT22;9708;53.114;9.388;2023-10-08T10:06:12;21.80;99.90
19152;DHT22;9708;53.114;9.388;2023-10-08T10:08:41;21.30;99.90
19152;DHT22;9708;53.114;9.388;2023-10-08T10:11:07;21.20;99.90
19152;DHT22;9708;53.114;9.388;2023-10-08T10:13:39;21.30;99.90
19152;DHT22;9708;53.114;9.388;2023-10-08T10:16:06;21.40;99.90
19152;DHT22;9708;53.114;9.388;2023-10-08T10:18:35;21.70;99.90
19152;DHT22;9708;53.114;9.388;2023-10-08T10:21:27;22.00;99.90
19152;DHT22;9708;53.114;9.388;2023-10-08T10:23:54;22.00;99.90
19152;DHT22;9708;53.114;9.388;2023-10-08T10:26:23;21.40;99.90
19152;DHT22;9708;53.114;9.388;2023-10-08T10:29:21;21.30;99.90
19152;DHT22;9708;53.114;9.388;2023-10-08T10:31:52;21.10;99.90
19152;DHT22;9708;53.114;9.388;2023-10-08T10:34:22;20.80;99.90
19152;DHT22;9708;53.114;9.388;2023-10-08T10:36:52;21.00;99.90
19152;DHT22;9708;53.114;9.388;2023-10-08T10:39:24;21.00;99.90
19152;DHT22;9708;53.114;9.388;2023-10-08T10:41:57;20.90;99.90
19152;DHT22;9708;53.114;9.388;2023-10-08T10:44:27;21.00;99.90
19152;DHT22;9708;53.114;9.388;2023-10-08T10:46:56;21.00;99.90
19152;DHT22;9708;53.114;9.388;2023-10-08T10:49:38;21.60;99.90
19152;DHT22;9708;53.114;9.388;2023-10-08T10:52:14;21.90;99.90
19152;DHT22;9708;53.114;9.388;2023-10-08T10:54:43;21.10;99.90
19152;DHT22;9708;53.114;9.388;2023-10-08T10:57:24;20.30;99.90
19152;DHT22;9708;53.114;9.388;2023-10-08T11:00:02;19.90;99.90
19152;DHT22;9708;53.114;9.388;2023-10-08T11:02:44;20.40;99.90
19152;DHT22;9708;53.114;9.388;2023-10-08T11:05:15;21.10;99.90
19152;DHT22;9708;53.114;9.388;2023-10-08T11:07:46;21.30;99.90
19152;DHT22;9708;53.114;9.388;2023-10-08T11:10:13;20.60;99.90
19152;DHT22;9708;53.114;9.388;2023-10-08T11:12:41;20.40;99.90
19152;DHT22;9708;53.114;9.388;2023-10-08T11:15:12;20.10;99.90
19152;DHT22;9708;53.114;9.388;2023-10-08T11:17:41;19.10;99.90
19152;DHT22;9708;53.114;9.388;2023-10-08T11:23:01;18.70;99.90
19152;DHT22;9708;53.114;9.388;2023-10-08T11:25:52;20.20;99.90
19152;DHT22;9708;53.114;9.388;2023-10-08T11:28:19;20.40;99.90
19152;DHT22;9708;53.114;9.388;2023-10-08T11:30:48;20.00;99.90
19152;DHT22;9708;53.114;9.388;2023-10-08T11:33:17;19.90;99.90
19152;DHT22;9708;53.114;9.388;2023-10-08T11:35:55;20.60;99.90
19152;DHT22;9708;53.114;9.388;2023-10-08T11:38:25;22.20;99.90
19152;DHT22;9708;53.114;9.388;2023-10-08T11:40:53;23.40;99.90
19152;DHT22;9708;53.114;9.388;2023-10-08T11:43:23;24.10;99.90
19152;DHT22;9708;53.114;9.388;2023-10-08T11:45:51;24.10;99.90
19152;DHT22;9708;53.114;9.388;2023-10-08T11:48:18;23.70;99.90
19152;DHT22;9708;53.114;9.388;2023-10-08T11:50:54;24.20;99.90
19152;DHT22;9708;53.114;9.388;2023-10-08T11:53:24;23.80;99.90
19152;DHT22;9708;53.114;9.388;2023-10-08T11:55:51;23.20;99.90
19152;DHT22;9708;53.114;9.388;2023-10-08T11:58:22;23.30;99.90
19152;DHT22;9708;53.114;9.388;2023-10-08T12:01:02;23.60;99.90
19152;DHT22;9708;53.114;9.388;2023-10-08T12:03:30;23.30;99.90
19152;DHT22;9708;53.114;9.388;2023-10-08T12:05:57;22.10;99.90
19152;DHT22;9708;53.114;9.388;2023-10-08T12:08:28;21.20;99.90
19152;DHT22;9708;53.114;9.388;2023-10-08T12:10:55;20.40;99.90
19152;DHT22;9708;53.114;9.388;2023-10-08T12:13:22;19.80;99.90
19152;DHT22;9708;53.114;9.388;2023-10-08T12:15:51;19.70;99.90
19152;DHT22;9708;53.114;9.388;2023-10-08T12:18:18;19.80;99.90
19152;DHT22;9708;53.114;9.388;2023-10-08T12:20:50;19.90;99.90
19152;DHT22;9708;53.114;9.388;2023-10-08T12:23:18;19.90;99.90
19152;DHT22;9708;53.114;9.388;2023-10-08T12:25:51;19.60;99.90
19152;DHT22;9708;53.114;9.388;2023-10-08T12:28:21;19.80;99.90
19152;DHT22;9708;53.114;9.388;2023-10-08T12:30:49;19.70;99.90
19152;DHT22;9708;53.114;9.388;2023-10-08T12:33:18;19.80;99.90
19152;DHT22;9708;53.114;9.388;2023-10-08T12:35:46;19.70;99.90
19152;DHT22;9708;53.114;9.388;2023-10-08T12:38:13;19.50;99.90
19152;DHT22;9708;53.114;9.388;2023-10-08T12:40:39;19.90;99.90
19152;DHT22;9708;53.114;9.388;2023-10-08T12:43:19;19.50;99.90
19152;DHT22;9708;53.114;9.388;2023-10-08T12:45:47;19.70;99.90
19152;DHT22;9708;53.114;9.388;2023-10-08T12:48:21;19.30;99.90
19152;DHT22;9708;53.114;9.388;2023-10-08T12:50:48;19.30;99.90
19152;DHT22;9708;53.114;9.388;2023-10-08T12:53:22;19.10;99.90
19152;DHT22;9708;53.114;9.388;2023-10-08T12:55:53;19.10;99.90
19152;DHT22;9708;53.114;9.388;2023-10-08T12:58:22;18.90;99.90
19152;DHT22;9708;53.114;9.388;2023-10-08T13:00:52;18.90;99.90
19152;DHT22;9708;53.114;9.388;2023-10-08T13:03:23;18.80;99.90
19152;DHT22;9708;53.114;9.388;2023-10-08T13:05:50;18.50;99.90
19152;DHT22;9708;53.114;9.388;2023-10-08T13:08:18;18.30;99.90
19152;DHT22;9708;53.114;9.388;2023-10-08T13:10:45;18.50;99.90
19152;DHT22;9708;53.114;9.388;2023-10-08T13:13:13;18.70;99.90
19152;DHT22;9708;53.114;9.388;2023-10-08T13:15:41;18.60;99.90
19152;DHT22;9708;53.114;9.388;2023-10-08T13:18:08;18.50;99.90
19152;DHT22;9708;53.114;9.388;2023-10-08T13:20:35;18.60;99.90
19152;DHT22;9708;53.114;9.388;2023-10-08T13:23:02;18.80;99.90
19152;DHT22;9708;53.114;9.388;2023-10-08T13:25:29;18.30;99.90
19152;DHT22;9708;53.114;9.388;2023-10-08T13:27:58;18.20;99.90
19152;DHT22;9708;53.114;9.388;2023-10-08T13:30:26;18.10;99.90
19152;DHT22;9708;53.114;9.388;2023-10-08T13:32:54;18.10;99.90
19152;DHT22;9708;53.114;9.388;2023-10-08T13:35:21;18.10;99.90
19152;DHT22;9708;53.114;9.388;2023-10-08T13:37:48;17.90;99.90
19152;DHT22;9708;53.114;9.388;2023-10-08T13:40:15;17.80;99.90
19152;DHT22;9708;53.114;9.388;2023-10-08T13:42:42;17.60;99.90
19152;DHT22;9708;53.114;9.388;2023-10-08T13:45:09;17.50;99.90
19152;DHT22;9708;53.114;9.388;2023-10-08T13:47:42;17.50;99.90
19152;DHT22;9708;53.114;9.388;2023-10-08T13:50:10;17.50;99.90
19152;DHT22;9708;53.114;9.388;2023-10-08T13:52:38;17.50;99.90
19152;DHT22;9708;53.114;9.388;2023-10-08T13:55:06;17.50;99.90
19152;DHT22;9708;53.114;9.388;2023-10-08T13:57:39;17.50;99.90
19152;DHT22;9708;53.114;9.388;2023-10-08T14:00:08;17.60;99.90
19152;DHT22;9708;53.114;9.388;2023-10-08T14:02:42;17.90;99.90
19152;DHT22;9708;53.114;9.388;2023-10-08T14:05:11;17.90;99.90
19152;DHT22;9708;53.114;9.388;2023-10-08T14:07:41;17.80;99.90
19152;DHT22;9708;53.114;9.388;2023-10-08T14:10:10;17.80;99.90
19152;DHT22;9708;53.114;9.388;2023-10-08T14:12:44;17.60;99.90
19152;DHT22;9708;53.114;9.388;2023-10-08T14:15:15;17.80;99.90
19152;DHT22;9708;53.114;9.388;2023-10-08T14:17:43;17.60;99.90
19152;DHT22;9708;53.114;9.388;2023-10-08T14:20:15;17.70;99.90
19152;DHT22;9708;53.114;9.388;2023-10-08T14:22:48;17.80;99.90
19152;DHT22;9708;53.114;9.388;2023-10-08T14:25:23;17.50;99.90
19152;DHT22;9708;53.114;9.388;2023-10-08T14:27:53;17.30;99.90
19152;DHT22;9708;53.114;9.388;2023-10-08T14:30:30;17.20;99.90
19152;DHT22;9708;53.114;9.388;2023-10-08T14:32:58;17.10;99.90
19152;DHT22;9708;53.114;9.388;2023-10-08T14:35:26;16.80;99.90
19152;DHT22;9708;53.114;9.388;2023-10-08T14:38:10;16.60;99.90
19152;DHT22;9708;53.114;9.388;2023-10-08T14:40:54;16.60;99.90
19152;DHT22;9708;53.114;9.388;2023-10-08T14:43:38;16.50;99.90
19152;DHT22;9708;53.114;9.388;2023-10-08T14:46:07;16.60;99.90
19152;DHT22;9708;53.114;9.388;2023-10-08T14:48:34;16.60;99.90
19152;DHT22;9708;53.114;9.388;2023-10-08T14:51:03;16.70;99.90
19152;DHT22;9708;53.114;9.388;2023-10-08T14:53:32;16.70;99.90
19152;DHT22;9708;53.114;9.388;2023-10-08T14:56:00;16.70;99.90
19152;DHT22;9708;53.114;9.388;2023-10-08T14:58:29;16.60;99.90
19152;DHT22;9708;53.114;9.388;2023-10-08T15:00:54;16.60;99.90
19152;DHT22;9708;53.114;9.388;2023-10-08T15:03:21;16.50;99.90
19152;DHT22;9708;53.114;9.388;2023-10-08T15:05:48;16.60;99.90
19152;DHT22;9708;53.114;9.388;2023-10-08T15:08:17;16.60;99.90
19152;DHT22;9708;53.114;9.388;2023-10-08T15:10:44;16.60;99.90
19152;DHT22;9708;53.114;9.388;2023-10-08T15:13:12;16.40;99.90
19152;DHT22;9708;53.114;9.388;2023-10-08T15:15:41;16.30;99.90
19152;DHT22;9708;53.114;9.388;2023-10-08T15:18:08;16.30;99.90
19152;DHT22;9708;53.114;9.388;2023-10-08T15:20:37;16.20;99.90
19152;DHT22;9708;53.114;9.388;2023-10-08T15:23:06;16.10;99.90
19152;DHT22;9708;53.114;9.388;2023-10-08T15:25:38;16.20;99.90
19152;DHT22;9708;53.114;9.388;2023-10-08T15:28:05;16.20;99.90
19152;DHT22;9708;53.114;9.388;2023-10-08T15:30:33;16.20;99.90
19152;DHT22;9708;53.114;9.388;2023-10-08T15:33:00;16.20;99.90
19152;DHT22;9708;53.114;9.388;2023-10-08T15:35:27;16.10;99.90
19152;DHT22;9708;53.114;9.388;2023-10-08T15:37:54;16.00;99.90
19152;DHT22;9708;53.114;9.388;2023-10-08T15:40:21;16.00;99.90
19152;DHT22;9708;53.114;9.388;2023-10-08T15:42:50;15.80;99.90
19152;DHT22;9708;53.114;9.388;2023-10-08T15:45:17;15.80;99.90
19152;DHT22;9708;53.114;9.388;2023-10-08T15:47:45;15.80;99.90
19152;DHT22;9708;53.114;9.388;2023-10-08T15:50:12;15.80;99.90
19152;DHT22;9708;53.114;9.388;2023-10-08T15:52:39;15.70;99.90
19152;DHT22;9708;53.114;9.388;2023-10-08T15:55:07;15.70;99.90
19152;DHT22;9708;53.114;9.388;2023-10-08T15:57:34;15.60;99.90
19152;DHT22;9708;53.114;9.388;2023-10-08T16:00:03;15.60;99.90
19152;DHT22;9708;53.114;9.388;2023-10-08T16:02:30;15.60;99.90
19152;DHT22;9708;53.114;9.388;2023-10-08T16:04:56;15.50;99.90
19152;DHT22;9708;53.114;9.388;2023-10-08T16:07:23;15.40;99.90
19152;DHT22;9708;53.114;9.388;2023-10-08T16:09:50;15.40;99.90
19152;DHT22;9708;53.114;9.388;2023-10-08T16:12:17;15.30;99.90
19152;DHT22;9708;53.114;9.388;2023-10-08T16:14:44;15.20;99.90